createdAt,value
2019-03-15T00:00:15.500Z,86.90
2019-03-15T00:02:14.372Z,86.20
2019-03-15T00:04:07.574Z,86.80
2019-03-15T00:06:00.984Z,86.80
2019-03-15T00:07:53.321Z,86.20
2019-03-15T00:09:46.435Z,86.20
2019-03-15T00:11:39.237Z,86.00
2019-03-15T00:13:32.380Z,86.10
2019-03-15T00:15:26.252Z,88.10
2019-03-15T00:17:19.537Z,88.10
2019-03-15T00:19:12.839Z,89.50
2019-03-15T00:21:06.004Z,90.00
2019-03-15T00:22:59.287Z,89.70
2019-03-15T00:24:52.672Z,88.90
2019-03-15T00:26:46.283Z,88.10
2019-03-15T00:28:40.067Z,89.50
2019-03-15T00:30:33.390Z,88.70
2019-03-15T00:32:25.705Z,88.60
2019-03-15T00:34:18.386Z,88.90
2019-03-15T00:36:11.164Z,89.60
2019-03-15T00:38:04.003Z,89.80
2019-03-15T00:39:57.305Z,90.20
2019-03-15T00:41:50.097Z,90.80
2019-03-15T00:43:43.020Z,90.90
2019-03-15T00:45:35.334Z,90.70
2019-03-15T00:47:28.060Z,90.30
2019-03-15T00:49:22.265Z,90.70
2019-03-15T00:51:15.473Z,90.60
2019-03-15T00:53:08.945Z,90.70
2019-03-15T00:55:01.279Z,90.10
2019-03-15T00:56:54.799Z,90.50
2019-03-15T00:58:47.696Z,90.60
2019-03-15T01:00:40.040Z,90.40
2019-03-15T01:02:33.048Z,90.30
2019-03-15T01:04:26.186Z,90.60
2019-03-15T01:06:18.607Z,90.90
2019-03-15T01:08:11.535Z,91.00
2019-03-15T01:10:09.452Z,91.00
2019-03-15T01:12:02.368Z,91.00
2019-03-15T01:13:54.702Z,91.90
2019-03-15T01:15:48.435Z,92.20
2019-03-15T01:17:41.866Z,92.60
2019-03-15T01:19:35.248Z,92.30
2019-03-15T01:21:27.446Z,92.10
2019-03-15T01:23:20.416Z,92.20
2019-03-15T01:25:13.476Z,92.30
2019-03-15T01:27:06.855Z,91.90
2019-03-15T01:28:59.873Z,91.80
2019-03-15T01:30:53.207Z,91.60
2019-03-15T01:32:46.307Z,91.80
2019-03-15T01:34:39.607Z,91.20
2019-03-15T01:36:32.518Z,90.90
2019-03-15T01:38:25.641Z,90.90
2019-03-15T01:40:17.903Z,90.70
2019-03-15T01:42:10.584Z,91.10
2019-03-15T01:44:03.485Z,91.00
2019-03-15T01:45:56.961Z,91.10
2019-03-15T01:47:50.561Z,91.20
2019-03-15T01:49:44.749Z,91.20
2019-03-15T01:51:38.252Z,91.30
2019-03-15T01:53:31.091Z,91.20
2019-03-15T01:55:24.467Z,91.10
2019-03-15T01:57:17.480Z,91.30
2019-03-15T01:59:10.743Z,91.40
2019-03-15T02:01:04.643Z,91.10
2019-03-15T02:02:57.980Z,91.70
2019-03-15T02:04:51.257Z,91.60
2019-03-15T02:06:44.234Z,91.50
2019-03-15T02:08:36.527Z,91.80
2019-03-15T02:10:29.687Z,91.50
2019-03-15T02:12:22.025Z,91.60
2019-03-15T02:14:15.173Z,91.60
2019-03-15T02:16:08.760Z,91.50
2019-03-15T02:18:02.015Z,91.50
2019-03-15T02:19:54.287Z,91.30
2019-03-15T02:21:47.112Z,91.50
2019-03-15T02:23:40.022Z,91.40
2019-03-15T02:25:33.161Z,91.50
2019-03-15T02:27:26.547Z,91.50
2019-03-15T02:29:20.536Z,91.30
2019-03-15T02:31:13.629Z,91.80
2019-03-15T02:33:06.170Z,91.30
2019-03-15T02:34:59.493Z,91.30
2019-03-15T02:36:52.824Z,91.20
2019-03-15T02:38:46.124Z,91.20
2019-03-15T02:40:38.896Z,91.70
2019-03-15T02:42:31.877Z,91.40
2019-03-15T02:44:25.444Z,91.00
2019-03-15T02:46:17.711Z,91.00
2019-03-15T02:48:10.597Z,91.00
2019-03-15T02:50:04.605Z,91.00
2019-03-15T02:51:58.189Z,90.70
2019-03-15T02:53:51.483Z,91.00
2019-03-15T02:55:44.695Z,90.90
2019-03-15T02:57:36.984Z,90.50
2019-03-15T02:59:29.915Z,90.70
2019-03-15T03:01:22.163Z,90.70
2019-03-15T03:03:14.817Z,90.50
2019-03-15T03:05:10.222Z,90.40
2019-03-15T03:07:03.671Z,90.20
2019-03-15T03:08:56.778Z,90.20
2019-03-15T03:10:49.768Z,90.30
2019-03-15T03:12:43.960Z,90.10
2019-03-15T03:14:37.530Z,90.20
2019-03-15T03:16:29.820Z,90.20
2019-03-15T03:18:22.471Z,90.20
2019-03-15T03:20:14.716Z,90.00
2019-03-15T03:22:09.106Z,90.10
2019-03-15T03:24:02.719Z,90.30
2019-03-15T03:25:55.668Z,90.10
2019-03-15T03:27:48.815Z,89.90
2019-03-15T03:29:43.054Z,90.00
2019-03-15T03:31:36.050Z,89.90
2019-03-15T03:33:28.754Z,89.80
2019-03-15T03:35:21.588Z,90.00
2019-03-15T03:37:13.859Z,90.00
2019-03-15T03:39:06.831Z,89.80
2019-03-15T03:40:59.646Z,90.10
2019-03-15T03:42:54.074Z,89.30
2019-03-15T03:44:47.169Z,89.40
2019-03-15T03:46:39.971Z,89.90
2019-03-15T03:48:32.298Z,89.80
2019-03-15T03:50:24.911Z,89.90
2019-03-15T03:52:17.836Z,89.90
2019-03-15T03:54:11.282Z,89.50
2019-03-15T03:56:04.612Z,89.60
2019-03-15T03:57:56.928Z,89.30
2019-03-15T03:59:49.760Z,89.30
2019-03-15T04:01:42.905Z,89.40
2019-03-15T04:03:36.383Z,89.60
2019-03-15T04:05:29.679Z,89.30
2019-03-15T04:07:23.541Z,89.40
2019-03-15T04:09:15.542Z,89.40
2019-03-15T04:11:08.431Z,89.40
2019-03-15T04:13:01.445Z,89.60
2019-03-15T04:14:54.991Z,89.60
2019-03-15T04:16:48.383Z,89.80
2019-03-15T04:18:41.121Z,89.30
2019-03-15T04:20:34.101Z,89.20
2019-03-15T04:22:26.506Z,89.10
2019-03-15T04:24:19.524Z,89.30
2019-03-15T04:26:13.581Z,89.40
2019-03-15T04:28:06.317Z,89.30
2019-03-15T04:29:59.207Z,89.10
2019-03-15T04:31:52.310Z,89.20
2019-03-15T04:33:45.569Z,89.30
2019-03-15T04:35:37.844Z,88.80
2019-03-15T04:37:30.816Z,88.70
2019-03-15T04:39:23.985Z,88.10
2019-03-15T04:41:17.004Z,88.10
2019-03-15T04:43:11.030Z,88.20
2019-03-15T04:45:04.336Z,87.80
2019-03-15T04:46:57.765Z,87.90
2019-03-15T04:48:50.732Z,88.10
2019-03-15T04:50:43.973Z,87.50
2019-03-15T04:52:36.866Z,87.80
2019-03-15T04:54:30.026Z,87.20
2019-03-15T04:56:22.776Z,87.20
2019-03-15T04:58:15.578Z,87.30
2019-03-15T05:00:09.863Z,87.80
2019-03-15T05:02:02.856Z,87.20
2019-03-15T05:03:55.830Z,86.90
2019-03-15T05:06:02.056Z,86.80
2019-03-15T05:07:43.542Z,86.50
2019-03-15T05:09:36.377Z,86.60
2019-03-15T05:11:28.685Z,86.80
2019-03-15T05:13:21.702Z,86.80
2019-03-15T05:15:14.674Z,86.50
2019-03-15T05:17:07.622Z,86.50
2019-03-15T05:19:00.819Z,86.50
2019-03-15T05:20:53.775Z,86.70
2019-03-15T05:22:46.949Z,86.30
2019-03-15T05:24:39.988Z,86.60
2019-03-15T05:26:33.430Z,87.00
2019-03-15T05:28:26.823Z,85.60
2019-03-15T05:30:20.072Z,86.40
2019-03-15T05:32:12.334Z,86.70
2019-03-15T05:34:05.653Z,86.10
2019-03-15T05:35:58.460Z,86.20
2019-03-15T05:37:51.456Z,85.80
2019-03-15T05:39:44.652Z,86.30
2019-03-15T05:41:38.100Z,85.60
2019-03-15T05:43:30.449Z,85.70
2019-03-15T05:45:23.272Z,86.90
2019-03-15T05:47:16.066Z,86.80
2019-03-15T05:49:09.029Z,86.90
2019-03-15T05:51:02.154Z,87.50
2019-03-15T05:52:55.192Z,87.60
2019-03-15T05:54:49.598Z,88.80
2019-03-15T05:56:42.562Z,88.90
2019-03-15T05:58:35.477Z,89.30
2019-03-15T06:00:28.458Z,90.00
2019-03-15T06:02:21.514Z,90.50
2019-03-15T06:04:13.760Z,90.70
2019-03-15T06:06:07.016Z,90.60
2019-03-15T06:07:59.179Z,91.20
2019-03-15T06:09:52.311Z,91.40
2019-03-15T06:11:45.660Z,91.60
2019-03-15T06:13:39.777Z,91.80
2019-03-15T06:15:32.632Z,92.70
2019-03-15T06:17:25.900Z,92.50
2019-03-15T06:19:19.166Z,93.90
2019-03-15T06:21:12.455Z,93.90
2019-03-15T06:23:04.741Z,94.00
2019-03-15T06:24:57.817Z,94.50
2019-03-15T06:26:51.100Z,94.30
2019-03-15T06:28:44.381Z,93.90
2019-03-15T06:30:37.883Z,94.10
2019-03-15T06:32:30.524Z,94.40
2019-03-15T06:34:23.523Z,94.50
2019-03-15T06:36:17.027Z,94.90
2019-03-15T06:38:10.331Z,95.30
2019-03-15T06:40:04.058Z,95.00
2019-03-15T06:41:57.093Z,94.50
2019-03-15T06:43:49.887Z,94.80
2019-03-15T06:45:43.450Z,94.20
2019-03-15T06:47:36.600Z,94.40
2019-03-15T06:49:29.357Z,94.80
2019-03-15T06:51:22.112Z,94.80
2019-03-15T06:53:15.390Z,94.70
2019-03-15T06:55:09.734Z,94.80
2019-03-15T06:57:02.897Z,95.30
2019-03-15T06:58:56.108Z,95.30
2019-03-15T07:00:49.600Z,95.90
2019-03-15T07:02:43.587Z,96.10
2019-03-15T07:04:36.893Z,96.30
2019-03-15T07:06:29.326Z,96.30
2019-03-15T07:08:22.777Z,96.00
2019-03-15T07:10:16.525Z,96.30
2019-03-15T07:12:11.546Z,96.20
2019-03-15T07:14:05.176Z,99.90
2019-03-15T07:15:57.993Z,98.70
2019-03-15T07:17:52.208Z,94.50
2019-03-15T07:19:45.445Z,94.80
2019-03-15T07:21:38.884Z,96.40
2019-03-15T07:23:32.023Z,95.90
2019-03-15T07:25:25.537Z,93.30
2019-03-15T07:27:18.618Z,94.70
2019-03-15T07:29:11.813Z,94.60
2019-03-15T07:31:05.098Z,95.00
2019-03-15T07:32:57.940Z,94.60
2019-03-15T07:34:51.683Z,96.30
2019-03-15T07:36:44.941Z,94.90
2019-03-15T07:38:37.761Z,93.70
2019-03-15T07:40:30.004Z,93.30
2019-03-15T07:42:23.143Z,93.60
2019-03-15T07:44:15.447Z,93.40
2019-03-15T07:46:08.621Z,93.40
2019-03-15T07:48:01.985Z,93.10
2019-03-15T07:49:54.360Z,93.50
2019-03-15T07:51:47.452Z,94.00
2019-03-15T07:53:40.842Z,93.80
2019-03-15T07:55:34.038Z,93.80
2019-03-15T07:57:27.075Z,93.90
2019-03-15T07:59:20.271Z,93.60
2019-03-15T08:01:13.539Z,93.70
2019-03-15T08:03:06.372Z,93.70
2019-03-15T08:04:59.732Z,94.30
2019-03-15T08:06:52.123Z,94.70
2019-03-15T08:08:44.988Z,94.20
2019-03-15T08:10:38.204Z,93.90
2019-03-15T08:12:31.413Z,94.10
2019-03-15T08:14:24.572Z,94.40
2019-03-15T08:16:17.875Z,94.90
2019-03-15T08:18:11.672Z,94.10
2019-03-15T08:20:07.756Z,94.30
2019-03-15T08:22:00.944Z,94.50
2019-03-15T08:23:54.075Z,95.10
2019-03-15T08:25:46.385Z,95.10
2019-03-15T08:27:39.377Z,95.10
2019-03-15T08:29:32.725Z,95.50
2019-03-15T08:31:25.922Z,95.40
2019-03-15T08:33:18.213Z,95.10
2019-03-15T08:35:11.866Z,95.50
2019-03-15T08:37:05.181Z,94.80
2019-03-15T08:38:58.585Z,95.60
2019-03-15T08:40:52.079Z,95.50
2019-03-15T08:42:45.210Z,95.40
2019-03-15T08:44:37.743Z,95.30
2019-03-15T08:46:30.556Z,96.40
2019-03-15T08:48:23.866Z,95.70
2019-03-15T08:50:18.807Z,95.50
2019-03-15T08:52:11.752Z,95.90
2019-03-15T08:54:04.722Z,96.30
2019-03-15T08:55:57.813Z,96.00
2019-03-15T08:57:50.228Z,96.20
2019-03-15T08:59:52.736Z,96.70
2019-03-15T09:01:38.113Z,96.40
2019-03-15T09:03:34.137Z,96.40
2019-03-15T09:05:26.084Z,95.60
2019-03-15T09:07:19.049Z,96.20
2019-03-15T09:09:12.039Z,95.50
2019-03-15T09:11:04.283Z,96.30
2019-03-15T09:12:57.221Z,96.90
2019-03-15T09:14:50.609Z,96.80
2019-03-15T09:16:42.915Z,96.50
2019-03-15T09:18:35.879Z,96.30
2019-03-15T09:20:30.402Z,96.00
2019-03-15T09:22:21.983Z,95.80
2019-03-15T09:24:14.869Z,95.90
2019-03-15T09:26:10.542Z,96.30
2019-03-15T09:28:04.804Z,96.90
2019-03-15T09:29:59.006Z,96.60
2019-03-15T09:32:05.156Z,96.20
2019-03-15T09:33:47.163Z,96.50
2019-03-15T09:35:46.692Z,96.50
2019-03-15T09:37:40.466Z,96.40
2019-03-15T09:39:33.760Z,96.60
2019-03-15T09:41:33.405Z,95.90
2019-03-15T09:43:21.087Z,96.30
2019-03-15T09:45:19.086Z,95.70
2019-03-15T09:47:12.474Z,96.50
2019-03-15T09:49:05.699Z,95.60
2019-03-15T09:50:59.340Z,96.40
2019-03-15T09:52:52.713Z,95.80
2019-03-15T09:54:46.174Z,95.80
2019-03-15T09:56:39.013Z,96.20
2019-03-15T09:58:31.376Z,95.90
2019-03-15T10:00:24.360Z,96.10
2019-03-15T10:02:29.271Z,96.00
2019-03-15T10:04:11.935Z,95.80
2019-03-15T10:06:14.790Z,96.40
2019-03-15T10:07:59.894Z,96.70
2019-03-15T10:09:53.543Z,97.00
2019-03-15T10:11:46.965Z,96.80
2019-03-15T10:13:40.639Z,96.50
2019-03-15T10:15:33.977Z,96.50
2019-03-15T10:17:28.887Z,97.00
2019-03-15T10:19:22.043Z,96.70
2019-03-15T10:21:15.101Z,96.00
2019-03-15T10:23:07.944Z,95.90
2019-03-15T10:25:00.288Z,96.60
2019-03-15T10:26:53.260Z,97.30
2019-03-15T10:28:46.260Z,96.90
2019-03-15T10:30:38.481Z,96.70
2019-03-15T10:32:31.669Z,96.50
2019-03-15T10:34:23.901Z,96.30
2019-03-15T10:36:17.180Z,95.90
2019-03-15T10:38:09.473Z,96.40
2019-03-15T10:40:02.505Z,96.70
2019-03-15T10:41:56.776Z,96.90
2019-03-15T10:43:50.113Z,95.70
2019-03-15T10:45:43.364Z,96.10
2019-03-15T10:47:36.202Z,96.50
2019-03-15T10:49:30.840Z,96.40
2019-03-15T10:51:25.665Z,96.80
2019-03-15T10:53:18.916Z,96.60
2019-03-15T10:55:12.188Z,96.40
2019-03-15T10:57:05.261Z,96.90
2019-03-15T10:58:58.643Z,96.70
2019-03-15T11:00:51.988Z,96.30
2019-03-15T11:02:44.588Z,96.50
2019-03-15T11:04:37.369Z,96.70
2019-03-15T11:06:29.585Z,96.40
2019-03-15T11:08:24.252Z,97.10
2019-03-15T11:10:16.825Z,96.30
2019-03-15T11:12:09.977Z,96.20
2019-03-15T11:14:02.948Z,96.30
2019-03-15T11:15:55.210Z,96.30
2019-03-15T11:17:47.974Z,97.00
2019-03-15T11:19:41.339Z,96.50
2019-03-15T11:21:34.286Z,96.70
2019-03-15T11:23:26.561Z,97.10
2019-03-15T11:25:19.177Z,96.90
2019-03-15T11:27:12.824Z,96.70
2019-03-15T11:29:06.283Z,96.50
2019-03-15T11:31:00.793Z,96.70
2019-03-15T11:32:54.036Z,96.40
2019-03-15T11:34:46.294Z,96.50
2019-03-15T11:36:38.962Z,96.70
2019-03-15T11:38:31.777Z,97.40
2019-03-15T11:40:23.932Z,97.20
2019-03-15T11:42:16.977Z,96.50
2019-03-15T11:44:09.773Z,96.90
2019-03-15T11:46:03.115Z,97.40
2019-03-15T11:48:03.243Z,97.20
2019-03-15T11:49:50.291Z,97.10
2019-03-15T11:51:43.292Z,96.90
2019-03-15T11:53:35.697Z,97.00
2019-03-15T11:55:28.940Z,97.10
2019-03-15T11:57:21.211Z,97.50
2019-03-15T11:59:14.001Z,97.50
2019-03-15T12:01:07.319Z,97.40
2019-03-15T12:03:00.362Z,97.10
2019-03-15T12:04:52.584Z,97.00
2019-03-15T12:06:45.855Z,97.80
2019-03-15T12:08:39.233Z,97.10
2019-03-15T12:10:31.602Z,97.30
2019-03-15T12:12:24.645Z,97.00
2019-03-15T12:14:16.883Z,97.40
2019-03-15T12:16:10.081Z,97.40
2019-03-15T12:18:03.481Z,97.50
2019-03-15T12:19:56.335Z,97.60
2019-03-15T12:21:48.633Z,97.30
2019-03-15T12:23:42.095Z,97.90
2019-03-15T12:25:34.402Z,97.80
2019-03-15T12:27:27.144Z,97.00
2019-03-15T12:29:20.193Z,97.30
2019-03-15T12:31:13.399Z,97.40
2019-03-15T12:33:06.454Z,97.20
2019-03-15T12:34:59.497Z,97.40
2019-03-15T12:36:52.572Z,97.30
2019-03-15T12:38:45.900Z,96.70
2019-03-15T12:40:39.637Z,96.80
2019-03-15T12:42:32.864Z,97.30
2019-03-15T12:44:26.421Z,96.70
2019-03-15T12:46:18.465Z,96.50
2019-03-15T12:48:11.717Z,96.40
2019-03-15T12:50:05.024Z,96.10
2019-03-15T12:51:58.222Z,96.50
2019-03-15T12:53:50.557Z,96.70
2019-03-15T12:55:43.526Z,96.50
2019-03-15T12:57:36.856Z,96.30
2019-03-15T12:59:29.057Z,95.60
2019-03-15T13:01:21.997Z,96.00
2019-03-15T13:03:14.193Z,96.00
2019-03-15T13:05:07.774Z,96.20
2019-03-15T13:07:01.211Z,95.70
2019-03-15T13:08:54.535Z,95.80
2019-03-15T13:10:48.897Z,96.00
2019-03-15T13:12:41.159Z,96.10
2019-03-15T13:14:34.094Z,95.80
2019-03-15T13:16:28.423Z,95.60
2019-03-15T13:18:20.674Z,95.90
2019-03-15T13:20:17.939Z,95.30
2019-03-15T13:22:11.319Z,95.70
2019-03-15T13:24:04.351Z,95.30
2019-03-15T13:25:57.505Z,95.10
2019-03-15T13:27:50.661Z,96.10
2019-03-15T13:29:43.845Z,95.70
2019-03-15T13:31:36.111Z,95.50
2019-03-15T13:33:29.174Z,95.40
2019-03-15T13:35:22.519Z,95.60
2019-03-15T13:37:14.729Z,95.70
2019-03-15T13:39:07.835Z,95.60
2019-03-15T13:41:00.177Z,95.70
2019-03-15T13:42:53.269Z,95.60
2019-03-15T13:44:45.580Z,95.80
2019-03-15T13:46:38.816Z,95.80
2019-03-15T13:48:32.113Z,96.40
2019-03-15T13:50:25.263Z,96.00
2019-03-15T13:52:18.675Z,96.10
2019-03-15T13:54:12.302Z,96.10
2019-03-15T13:56:04.548Z,95.70
2019-03-15T13:57:57.819Z,95.90
2019-03-15T13:59:50.007Z,95.90
2019-03-15T14:01:42.706Z,96.20
2019-03-15T14:03:37.020Z,96.20
2019-03-15T14:05:29.269Z,95.90
2019-03-15T14:07:22.392Z,95.60
2019-03-15T14:09:15.192Z,95.80
2019-03-15T14:11:08.176Z,95.90
2019-03-15T14:13:01.179Z,96.00
2019-03-15T14:14:54.715Z,96.00
2019-03-15T14:16:47.964Z,95.80
2019-03-15T14:18:40.811Z,95.70
2019-03-15T14:20:34.088Z,96.10
2019-03-15T14:22:27.509Z,95.70
2019-03-15T14:24:22.838Z,95.70
2019-03-15T14:26:15.940Z,95.50
2019-03-15T14:28:08.975Z,95.80
2019-03-15T14:30:01.830Z,95.70
2019-03-15T14:31:54.142Z,95.60
2019-03-15T14:33:47.256Z,95.90
2019-03-15T14:35:40.215Z,95.40
2019-03-15T14:37:33.556Z,95.70
2019-03-15T14:39:27.097Z,95.80
2019-03-15T14:41:20.611Z,95.90
2019-03-15T14:43:14.770Z,96.00
2019-03-15T14:45:14.261Z,96.00
2019-03-15T14:47:07.048Z,95.70
2019-03-15T14:49:00.354Z,95.80
2019-03-15T14:50:52.654Z,95.70
2019-03-15T14:52:46.765Z,95.90
2019-03-15T14:54:42.202Z,96.20
2019-03-15T14:56:32.980Z,95.80
2019-03-15T14:58:26.004Z,96.10
2019-03-15T15:00:20.519Z,95.60
2019-03-15T15:02:13.984Z,96.00
2019-03-15T15:04:07.525Z,95.60
2019-03-15T15:06:00.799Z,95.80
2019-03-15T15:07:54.339Z,95.90
2019-03-15T15:09:47.693Z,96.00
2019-03-15T15:11:41.489Z,95.90
2019-03-15T15:13:33.769Z,95.80
2019-03-15T15:15:26.797Z,96.00
2019-03-15T15:17:19.084Z,96.10
2019-03-15T15:19:12.296Z,96.50
2019-03-15T15:21:05.620Z,96.80
2019-03-15T15:22:57.836Z,97.10
2019-03-15T15:24:50.607Z,96.80
2019-03-15T15:26:43.846Z,96.90
2019-03-15T15:28:36.194Z,97.10
2019-03-15T15:30:29.529Z,96.90
2019-03-15T15:32:22.619Z,96.90
2019-03-15T15:34:14.920Z,96.60
2019-03-15T15:36:08.115Z,96.60
2019-03-15T15:38:00.340Z,96.70
2019-03-15T15:39:53.428Z,96.80
2019-03-15T15:41:48.702Z,96.90
2019-03-15T15:43:42.196Z,96.80
2019-03-15T15:45:34.488Z,96.70
2019-03-15T15:47:27.900Z,96.80
2019-03-15T15:49:21.162Z,97.00
2019-03-15T15:51:14.553Z,97.00
2019-03-15T15:53:11.087Z,96.90
2019-03-15T15:55:06.710Z,96.70
2019-03-15T15:57:00.184Z,96.90
2019-03-15T15:58:53.483Z,96.70
2019-03-15T16:00:45.784Z,96.60
2019-03-15T16:02:38.832Z,96.70
2019-03-15T16:04:31.027Z,96.60
2019-03-15T16:06:25.316Z,97.00
2019-03-15T16:08:18.768Z,96.80
2019-03-15T16:10:11.795Z,96.70
2019-03-15T16:12:05.521Z,96.60
2019-03-15T16:13:59.042Z,96.50
2019-03-15T16:15:51.447Z,96.40
2019-03-15T16:17:45.635Z,96.40
2019-03-15T16:19:39.824Z,96.60
2019-03-15T16:21:33.276Z,96.30
2019-03-15T16:23:26.608Z,96.10
2019-03-15T16:25:19.332Z,96.00
2019-03-15T16:27:11.642Z,96.20
2019-03-15T16:29:04.764Z,96.60
2019-03-15T16:30:57.840Z,96.90
2019-03-15T16:32:50.596Z,96.80
2019-03-15T16:34:43.639Z,96.30
2019-03-15T16:36:37.107Z,96.20
2019-03-15T16:38:29.371Z,96.40
2019-03-15T16:40:22.526Z,96.20
2019-03-15T16:42:15.590Z,96.50
2019-03-15T16:44:09.714Z,97.00
2019-03-15T16:46:02.702Z,96.60
2019-03-15T16:47:55.716Z,96.30
2019-03-15T16:49:47.966Z,96.40
2019-03-15T16:51:42.222Z,96.70
2019-03-15T16:53:35.577Z,96.30
2019-03-15T16:55:28.847Z,96.60
2019-03-15T16:57:22.164Z,97.10
2019-03-15T16:59:15.047Z,96.70
2019-03-15T17:01:07.436Z,96.90
2019-03-15T17:03:02.067Z,96.80
2019-03-15T17:04:55.064Z,97.10
2019-03-15T17:06:48.260Z,97.00
2019-03-15T17:08:41.634Z,97.10
2019-03-15T17:10:34.840Z,96.70
2019-03-15T17:12:28.104Z,96.50
2019-03-15T17:14:25.380Z,96.70
2019-03-15T17:16:14.180Z,96.70
2019-03-15T17:18:07.421Z,96.70
2019-03-15T17:20:00.236Z,96.80
2019-03-15T17:21:53.725Z,96.90
2019-03-15T17:23:46.021Z,96.80
2019-03-15T17:25:39.452Z,96.60
2019-03-15T17:27:32.700Z,96.90
2019-03-15T17:29:25.922Z,96.60
2019-03-15T17:31:19.296Z,96.80
2019-03-15T17:33:12.484Z,96.70
2019-03-15T17:35:08.831Z,96.70
2019-03-15T17:37:06.688Z,96.80
2019-03-15T17:38:56.079Z,97.00
2019-03-15T17:40:49.100Z,96.90
2019-03-15T17:42:41.412Z,97.10
2019-03-15T17:44:34.477Z,96.90
2019-03-15T17:46:27.971Z,96.80
2019-03-15T17:48:21.320Z,97.00
2019-03-15T17:50:19.336Z,96.70
2019-03-15T17:52:12.361Z,96.70
2019-03-15T17:54:05.595Z,96.90
2019-03-15T17:55:59.441Z,96.70
2019-03-15T17:57:51.694Z,96.60
2019-03-15T17:59:59.820Z,96.70
2019-03-15T18:01:52.690Z,96.80
2019-03-15T18:03:47.474Z,97.00
2019-03-15T18:05:41.106Z,97.00
2019-03-15T18:07:34.535Z,96.90
2019-03-15T18:09:28.741Z,96.90
2019-03-15T18:11:22.424Z,96.90
2019-03-15T18:13:15.796Z,96.60
2019-03-15T18:15:10.219Z,96.70
2019-03-15T18:17:03.287Z,96.80
2019-03-15T18:18:56.740Z,96.70
2019-03-15T18:20:49.275Z,96.90
2019-03-15T18:22:42.281Z,96.80
2019-03-15T18:24:34.958Z,96.80
2019-03-15T18:26:27.966Z,96.70
2019-03-15T18:28:20.160Z,96.60
2019-03-15T18:30:17.632Z,96.90
2019-03-15T18:32:10.769Z,96.60
2019-03-15T18:34:03.808Z,96.70
2019-03-15T18:35:57.115Z,96.80
2019-03-15T18:37:50.414Z,96.80
2019-03-15T18:39:43.394Z,96.60
2019-03-15T18:41:35.708Z,96.50
2019-03-15T18:43:29.959Z,96.80
2019-03-15T18:45:23.419Z,96.30
2019-03-15T18:47:16.578Z,96.50
2019-03-15T18:49:09.672Z,96.30
2019-03-15T18:51:02.951Z,96.40
2019-03-15T18:52:56.333Z,96.50
2019-03-15T18:54:49.597Z,96.40
2019-03-15T18:56:41.791Z,96.10
2019-03-15T18:58:34.796Z,96.10
2019-03-15T19:00:27.940Z,95.50
2019-03-15T19:02:20.200Z,95.90
2019-03-15T19:04:13.202Z,95.70
2019-03-15T19:06:06.317Z,95.70
2019-03-15T19:07:58.605Z,95.80
2019-03-15T19:09:51.956Z,95.80
2019-03-15T19:11:44.116Z,96.10
2019-03-15T19:13:38.028Z,95.70
2019-03-15T19:15:32.254Z,95.90
2019-03-15T19:17:25.469Z,95.50
2019-03-15T19:19:19.174Z,95.80
2019-03-15T19:21:12.482Z,95.40
2019-03-15T19:23:05.970Z,95.30
2019-03-15T19:24:59.735Z,94.50
2019-03-15T19:26:53.918Z,94.40
2019-03-15T19:28:47.318Z,94.50
2019-03-15T19:30:40.885Z,94.70
2019-03-15T19:32:34.791Z,94.30
2019-03-15T19:34:28.293Z,94.40
2019-03-15T19:36:21.814Z,94.30
2019-03-15T19:38:15.640Z,94.40
2019-03-15T19:40:11.950Z,94.60
2019-03-15T19:42:05.710Z,94.00
2019-03-15T19:43:59.623Z,94.00
2019-03-15T19:45:53.284Z,94.00
2019-03-15T19:47:47.509Z,93.70
2019-03-15T19:49:41.394Z,93.30
2019-03-15T19:51:35.280Z,93.20
2019-03-15T19:53:29.431Z,93.20
2019-03-15T19:55:23.412Z,93.50
2019-03-15T19:57:17.656Z,93.20
2019-03-15T19:59:11.612Z,93.10
2019-03-15T20:01:05.533Z,92.80
2019-03-15T20:03:00.565Z,93.40
2019-03-15T20:04:54.696Z,92.70
2019-03-15T20:06:49.900Z,92.60
2019-03-15T20:08:44.874Z,92.20
2019-03-15T20:10:39.434Z,92.40
2019-03-15T20:12:34.050Z,91.80
2019-03-15T20:14:28.486Z,91.40
2019-03-15T20:16:23.156Z,92.00
2019-03-15T20:18:21.012Z,91.80
2019-03-15T20:20:15.914Z,91.90
2019-03-15T20:22:10.610Z,92.00
2019-03-15T20:24:04.406Z,91.50
2019-03-15T20:25:58.539Z,91.30
2019-03-15T20:27:53.404Z,91.10
2019-03-15T20:29:47.923Z,91.70
2019-03-15T20:31:51.432Z,91.30
2019-03-15T20:33:45.817Z,90.80
2019-03-15T20:35:40.791Z,90.70
2019-03-15T20:37:35.551Z,90.30
2019-03-15T20:39:33.575Z,90.10
2019-03-15T20:41:28.382Z,89.90
2019-03-15T20:43:24.358Z,89.60
2019-03-15T20:45:27.153Z,89.00
2019-03-15T20:47:22.087Z,89.50
2019-03-15T20:49:16.864Z,89.50
2019-03-15T20:51:14.504Z,89.30
2019-03-15T20:53:12.681Z,89.50
2019-03-15T20:55:05.515Z,89.50
2019-03-15T20:57:00.279Z,88.50
2019-03-15T20:58:55.024Z,88.20
2019-03-15T21:00:50.882Z,88.30
2019-03-15T21:02:45.625Z,87.50
2019-03-15T21:04:40.962Z,87.30
2019-03-15T21:06:35.552Z,87.50
2019-03-15T21:08:30.126Z,87.10
2019-03-15T21:10:24.520Z,87.40
2019-03-15T21:12:18.415Z,87.10
2019-03-15T21:14:12.620Z,87.20
2019-03-15T21:16:06.369Z,87.50
2019-03-15T21:18:00.369Z,87.40
2019-03-15T21:19:54.271Z,87.70
2019-03-15T21:21:47.864Z,87.50
2019-03-15T21:23:41.643Z,87.60
2019-03-15T21:25:35.535Z,87.10
2019-03-15T21:27:29.247Z,87.00
2019-03-15T21:29:22.780Z,87.10
2019-03-15T21:31:16.017Z,86.90
2019-03-15T21:33:09.506Z,86.80
2019-03-15T21:35:02.851Z,86.90
2019-03-15T21:36:56.893Z,86.60
2019-03-15T21:38:50.721Z,86.60
2019-03-15T21:40:44.463Z,86.80
2019-03-15T21:42:37.774Z,86.60
2019-03-15T21:44:31.197Z,87.10
2019-03-15T21:46:24.718Z,86.90
2019-03-15T21:48:18.070Z,86.40
2019-03-15T21:50:14.030Z,86.50
2019-03-15T21:52:07.120Z,87.00
2019-03-15T21:54:00.628Z,87.40
2019-03-15T21:55:53.908Z,87.40
2019-03-15T21:57:46.227Z,87.70
2019-03-15T21:59:39.297Z,88.20
2019-03-15T22:01:31.473Z,88.50
2019-03-15T22:03:24.785Z,88.50
2019-03-15T22:05:18.185Z,88.40
2019-03-15T22:07:11.172Z,88.30
2019-03-15T22:09:05.652Z,89.00
2019-03-15T22:10:58.979Z,89.40
2019-03-15T22:12:52.380Z,88.50
2019-03-15T22:14:45.183Z,89.80
2019-03-15T22:16:38.000Z,89.40
2019-03-15T22:18:30.808Z,88.60
2019-03-15T22:20:23.449Z,88.90
2019-03-15T22:22:16.581Z,88.80
2019-03-15T22:24:09.724Z,89.10
2019-03-15T22:26:02.039Z,90.10
2019-03-15T22:27:54.703Z,88.60
2019-03-15T22:29:53.571Z,89.60
2019-03-15T22:31:42.867Z,89.10
2019-03-15T22:33:36.256Z,89.50
2019-03-15T22:35:29.064Z,90.00
2019-03-15T22:37:21.413Z,90.10
2019-03-15T22:39:14.353Z,89.80
2019-03-15T22:41:07.915Z,90.00
2019-03-15T22:43:01.303Z,89.70
2019-03-15T22:44:53.497Z,90.10
2019-03-15T22:46:47.788Z,90.10
2019-03-15T22:48:40.727Z,90.00
2019-03-15T22:50:33.706Z,89.90
2019-03-15T22:52:25.973Z,90.10
2019-03-15T22:54:19.025Z,90.00
2019-03-15T22:56:11.296Z,89.30
2019-03-15T22:58:04.478Z,89.50
2019-03-15T22:59:58.243Z,90.10
2019-03-15T23:01:51.096Z,89.60
2019-03-15T23:03:43.864Z,89.30
2019-03-15T23:05:37.179Z,89.00
2019-03-15T23:07:30.627Z,88.30
2019-03-15T23:09:22.923Z,88.80
2019-03-15T23:11:16.047Z,89.30
2019-03-15T23:13:09.535Z,88.90
2019-03-15T23:15:01.834Z,89.10
2019-03-15T23:16:55.741Z,89.00
2019-03-15T23:18:48.914Z,88.50
2019-03-15T23:20:43.316Z,88.80
2019-03-15T23:22:35.545Z,88.60
2019-03-15T23:24:28.413Z,88.90
2019-03-15T23:26:20.611Z,88.80
2019-03-15T23:28:13.756Z,89.30
2019-03-15T23:30:09.435Z,88.90
2019-03-15T23:32:02.800Z,89.00
2019-03-15T23:33:56.093Z,89.30
2019-03-15T23:35:54.077Z,89.20
2019-03-15T23:37:44.745Z,89.40
2019-03-15T23:39:37.685Z,89.40
2019-03-15T23:41:30.465Z,88.70
2019-03-15T23:43:23.817Z,88.60
2019-03-15T23:45:16.564Z,88.60
2019-03-15T23:47:09.333Z,88.40
2019-03-15T23:49:02.276Z,87.80
2019-03-15T23:50:55.683Z,88.20
2019-03-15T23:52:47.925Z,87.70
2019-03-15T23:54:40.656Z,88.00
2019-03-15T23:56:33.628Z,88.00
2019-03-15T23:58:26.398Z,87.20
